| Date | Time | Temp. (oF) | Dew Point (oF) | Rel. Hum. (%) | Press. (in.) | Wind Dir. | Wind Speed (mph) | Hourly Rainfall (in.) |
|
|---|---|---|---|---|---|---|---|---|---|
| 1 | 01/10 | 00:00 | 18 | 5 | 57 | 30.27 | WNW | 7 | 0.00 |
| 2 | 01/09 | 23:00 | 18 | 5 | 57 | 30.25 | S | 2 | 0.00 |
| 3 | 01/09 | 22:00 | 18 | 7 | 62 | 30.23 | SSW | 1 | 0.00 |
| 4 | 01/09 | 21:00 | 20 | 7 | 58 | 30.21 | SSW | 0 | 0.00 |
| 5 | 01/09 | 20:00 | 22 | 9 | 57 | 30.19 | W | 3 | 0.00 |
| 6 | 01/09 | 19:00 | 23 | 9 | 55 | 30.17 | W | 10 | 0.00 |
| 7 | 01/09 | 18:00 | 24 | 8 | 52 | 30.13 | WSW | 0 | 0.00 |
| 8 | 01/09 | 17:00 | 26 | 10 | 51 | 30.09 | SW | 7 | 0.00 |
| 9 | 01/09 | 16:00 | 27 | 13 | 56 | 30.06 | W | 6 | 0.00 |
| 10 | 01/09 | 15:00 | 30 | 13 | 49 | 30.03 | W | 19 | 0.00 |
| 11 | 01/09 | 14:00 | 29 | 13 | 51 | 30.02 | WSW | 10 | 0.00 |
| 12 | 01/09 | 13:00 | 30 | 14 | 51 | 30.02 | W | 11 | 0.00 |
| 13 | 01/09 | 12:00 | 28 | 13 | 54 | 30.03 | SSW | 17 | 0.00 |
| 14 | 01/09 | 11:00 | 30 | 14 | 53 | 30.04 | SW | 12 | 0.00 |
| 15 | 01/09 | 10:00 | 25 | 10 | 53 | 30.07 | S | 5 | 0.00 |
| 16 | 01/09 | 09:00 | 23 | 8 | 53 | 30.06 | S | 9 | 0.00 |
| 17 | 01/09 | 08:00 | 22 | 7 | 53 | 30.04 | SSW | 6 | 0.00 |
| 18 | 01/09 | 07:00 | 22 | 7 | 52 | 30.01 | S | 6 | 0.00 |
| 19 | 01/09 | 06:00 | 22 | 7 | 53 | 30.00 | SW | 0 | 0.00 |
| 20 | 01/09 | 05:00 | 21 | 6 | 53 | 29.99 | SSW | 7 | 0.00 |
| 21 | 01/09 | 04:00 | 20 | 4 | 51 | 29.99 | S | 10 | 0.00 |
| 22 | 01/09 | 03:00 | 20 | 3 | 49 | 30.02 | SSE | 7 | 0.00 |
| 23 | 01/09 | 02:00 | 19 | 2 | 49 | 30.03 | S | 9 | 0.00 |
| 24 | 01/09 | 01:00 | 19 | 2 | 49 | 30.11 | S | 8 | 0.00 |